»·PEaware :: AAL1763 KLAX-KLAS

AAL1763 :: KLAX-KLAS

FLIGHT INFORMATION

Flight Status: Arrived
Operator:
American Airlines
More flights by this operator :: More flights under this callsign
Pilot: Alfredo R. (12181)
Aircraft: BOEING 737-800
(B738)
More flights by this aircraft type
Origin: KLAX Los Angeles Intl
United States
Destination: KLAS McCarran Intl
United States
More flights between these airports :: More routes between these airports
Route: +OSHNN8 MISEN KEPEC6
File this flight plan on PilotEdge
Remarks:
Altitude:
(Current/Filed)
25,000ft
Speed:
(Current/Filed)
425kts
Departed: 03-Oct-18 09:31 PM
Arrived: 03-Oct-18 10:22 PM
Distance/Time
Traveled:
206nm/0:51
Distance/Time
To Go:
Arrived

Flight Plot

Page will automatically refresh every two minutes.

Flight plan parsing failed; only flown route is shown


Map Options




Map Legend


Flown Route
Filed Route
Departure Airport
Arrival Airport
Navaid (VOR, NDB)
Fix

Horizontal Profiles

Position Reports

Time Latitude Longitude Heading Altitude Ground
Speed
03-Oct-18 21:06 33.940650 -118.403795 263 119ft 0kts
03-Oct-18 21:07 33.940650 -118.403795 263 119ft 0kts
03-Oct-18 21:08 33.940650 -118.403795 263 119ft 0kts
03-Oct-18 21:09 33.940650 -118.403795 263 119ft 0kts
03-Oct-18 21:10 33.940650 -118.403795 263 119ft 0kts
03-Oct-18 21:11 33.940650 -118.403795 263 119ft 0kts
03-Oct-18 21:12 33.940650 -118.403795 263 119ft 0kts
03-Oct-18 21:13 33.940650 -118.403795 263 119ft 0kts
03-Oct-18 21:14 33.940650 -118.403795 263 119ft 0kts
03-Oct-18 21:15 33.940651 -118.403795 263 119ft 0kts
03-Oct-18 21:16 33.940708 -118.403291 256 119ft 2kts
03-Oct-18 21:17 33.941173 -118.403214 173 119ft 2kts
03-Oct-18 21:18 33.941282 -118.403232 174 119ft 7kts
03-Oct-18 21:19 33.940253 -118.403099 173 119ft 0kts
03-Oct-18 21:20 33.940252 -118.403098 173 119ft 0kts
03-Oct-18 21:21 33.940252 -118.403098 173 119ft 0kts
03-Oct-18 21:22 33.940252 -118.403098 173 119ft 0kts
03-Oct-18 21:23 33.940225 -118.403095 173 119ft 1kts
03-Oct-18 21:24 33.938949 -118.402897 173 119ft 8kts
03-Oct-18 21:25 33.938822 -118.399650 83 115ft 16kts
03-Oct-18 21:26 33.939461 -118.393291 83 106ft 20kts
03-Oct-18 21:27 33.940134 -118.386758 82 103ft 19kts
03-Oct-18 21:28 33.940698 -118.381252 83 99ft 11kts
03-Oct-18 21:29 33.940696 -118.380694 110 99ft 0kts
03-Oct-18 21:30 33.940696 -118.380694 110 99ft 0kts
03-Oct-18 21:31 33.939990 -118.380270 214 99ft 7kts
03-Oct-18 21:32 33.939584 -118.382639 263 99ft 0kts
03-Oct-18 21:33 33.939055 -118.387602 262 103ft 73kts
03-Oct-18 21:34 33.932961 -118.431916 257 1413ft 165kts
03-Oct-18 21:35 33.923479 -118.493483 240 3018ft 222kts
03-Oct-18 21:36 33.871681 -118.546625 218 4972ft 261kts
03-Oct-18 21:37 33.802554 -118.550693 169 7341ft 270kts
03-Oct-18 21:38 33.729350 -118.530539 166 9954ft 286kts
03-Oct-18 21:39 33.676512 -118.456760 112 11960ft 326kts
03-Oct-18 21:40 33.646159 -118.351967 111 14359ft 345kts
03-Oct-18 21:41 33.643128 -118.234206 86 16674ft 371kts
03-Oct-18 21:42 33.696435 -118.131996 36 18785ft 388kts
03-Oct-18 21:43 33.783786 -118.053751 35 20991ft 398kts
03-Oct-18 21:44 33.873599 -117.973340 35 22833ft 413kts
03-Oct-18 21:45 33.966889 -117.888820 36 24553ft 427kts
03-Oct-18 21:46 34.063296 -117.800671 36 25033ft 455kts
03-Oct-18 21:47 34.151427 -117.687809 51 25012ft 473kts
03-Oct-18 21:48 34.231968 -117.567228 51 25014ft 473kts
03-Oct-18 21:49 34.313585 -117.445147 51 25765ft 469kts
03-Oct-18 21:50 34.395577 -117.322167 52 26764ft 477kts
03-Oct-18 21:51 34.478748 -117.197210 52 26988ft 478kts
03-Oct-18 21:52 34.562225 -117.072086 51 26986ft 477kts
03-Oct-18 21:53 34.646047 -116.949927 51 26959ft 470kts
03-Oct-18 21:54 34.727684 -116.830611 51 26970ft 458kts
03-Oct-18 21:55 34.805997 -116.715799 52 26989ft 436kts
03-Oct-18 21:56 34.888871 -116.609216 39 26595ft 438kts
03-Oct-18 21:57 34.984324 -116.517225 37 25435ft 439kts
03-Oct-18 21:58 35.077727 -116.426734 38 24252ft 421kts
03-Oct-18 21:59 35.159692 -116.332285 46 23986ft 411kts
03-Oct-18 22:00 35.238418 -116.233716 46 22443ft 403kts
03-Oct-18 22:01 35.316385 -116.135707 46 20833ft 396kts
03-Oct-18 22:02 35.390830 -116.041906 47 19261ft 393kts
03-Oct-18 22:03 35.464928 -115.948187 47 17712ft 388kts
03-Oct-18 22:04 35.537129 -115.856585 47 16368ft 384kts
03-Oct-18 22:05 35.608217 -115.766205 48 14960ft 355kts
03-Oct-18 22:06 35.674127 -115.682182 48 13544ft 335kts
03-Oct-18 22:07 35.737998 -115.600898 43 13033ft 332kts
03-Oct-18 22:08 35.825157 -115.570449 1 13039ft 335kts
03-Oct-18 22:09 35.917752 -115.565572 1 13039ft 334kts
03-Oct-18 22:10 35.988273 -115.511784 68 12383ft 302kts
03-Oct-18 22:11 36.018398 -115.418753 73 11516ft 290kts
03-Oct-18 22:12 36.030394 -115.326360 95 10686ft 277kts
03-Oct-18 22:13 36.026581 -115.233416 98 9812ft 272kts
03-Oct-18 22:14 36.021054 -115.143854 100 8916ft 253kts
03-Oct-18 22:15 36.014974 -115.061569 100 7968ft 241kts
03-Oct-18 22:16 36.012644 -114.979988 95 6861ft 238kts
03-Oct-18 22:17 36.011689 -114.901068 95 5945ft 223kts
03-Oct-18 22:18 36.052048 -114.868658 319 4960ft 207kts
03-Oct-18 22:19 36.074180 -114.927035 279 4048ft 188kts
03-Oct-18 22:20 36.077703 -114.987505 266 3708ft 180kts
03-Oct-18 22:21 36.072620 -115.048146 272 3510ft 182kts
03-Oct-18 22:22 36.073559 -115.104824 266 2329ft 144kts
03-Oct-18 22:23 36.073564 -115.145551 271 2102ft 41kts
03-Oct-18 22:24 36.074480 -115.150038 304 2118ft 0kts
03-Oct-18 22:25 36.075624 -115.151510 329 2122ft 15kts
03-Oct-18 22:26 36.077952 -115.151436 93 2117ft 13kts
03-Oct-18 22:27 36.077637 -115.145004 94 2096ft 19kts
03-Oct-18 22:28 36.077543 -115.138274 91 2074ft 21kts
03-Oct-18 22:29 36.078543 -115.133772 358 2059ft 13kts
03-Oct-18 22:30 36.079555 -115.135239 357 2063ft 5kts
03-Oct-18 22:31 36.079825 -115.135272 353 2062ft 0kts
03-Oct-18 22:32 36.079825 -115.135272 353 2062ft 0kts
03-Oct-18 22:33 36.079825 -115.135272 353 2062ft 0kts

Navigation Log

Ident Type
Flight plan parsing failed, navigation log unavailable